createdAt,value
2022-10-13T00:02:20.081Z,11.00
2022-10-13T00:05:24.401Z,10.98
2022-10-13T00:08:27.061Z,11.02
2022-10-13T00:11:31.250Z,11.07
2022-10-13T00:14:33.877Z,11.14
2022-10-13T00:17:37.281Z,11.24
2022-10-13T00:20:44.756Z,11.38
2022-10-13T00:23:47.768Z,11.54
2022-10-13T00:26:52.246Z,11.68
2022-10-13T00:29:54.872Z,11.77
2022-10-13T00:32:57.482Z,11.82
2022-10-13T00:36:01.501Z,11.89
2022-10-13T00:39:04.804Z,11.91
2022-10-13T00:42:11.223Z,11.89
2022-10-13T00:45:23.447Z,11.83
2022-10-13T00:48:29.116Z,11.78
2022-10-13T00:51:35.698Z,11.71
2022-10-13T00:54:38.720Z,11.64
2022-10-13T00:57:44.984Z,11.55
2022-10-13T01:00:50.608Z,11.47
2022-10-13T01:03:53.715Z,11.40
2022-10-13T01:06:58.005Z,11.32
2022-10-13T01:10:02.628Z,11.29
2022-10-13T01:13:13.113Z,11.25
2022-10-13T01:16:24.030Z,11.21
2022-10-13T01:20:05.623Z,11.15
2022-10-13T01:23:23.282Z,11.11
2022-10-13T01:26:55.267Z,11.05
2022-10-13T01:30:08.078Z,11.03
2022-10-13T01:33:23.265Z,11.03
2022-10-13T01:36:34.332Z,11.04
2022-10-13T01:39:44.025Z,10.99
2022-10-13T01:42:54.327Z,10.99
2022-10-13T01:46:03.336Z,11.00
2022-10-13T01:49:10.338Z,11.03
2022-10-13T01:52:17.388Z,11.04
2022-10-13T01:55:20.213Z,11.07
2022-10-13T01:58:23.469Z,11.09
2022-10-13T02:01:40.509Z,11.06
2022-10-13T02:04:53.972Z,11.00
2022-10-13T02:08:01.730Z,10.99
2022-10-13T02:11:14.308Z,10.99
2022-10-13T02:14:22.337Z,11.00
2022-10-13T02:17:28.045Z,10.95
2022-10-13T02:20:32.295Z,10.97
2022-10-13T02:23:35.006Z,10.94
2022-10-13T02:26:39.096Z,10.93
2022-10-13T02:29:51.250Z,10.90
2022-10-13T02:32:55.485Z,10.91
2022-10-13T02:35:58.069Z,10.92
2022-10-13T02:39:00.777Z,10.93
2022-10-13T02:42:03.420Z,10.94
2022-10-13T02:45:07.415Z,10.92
2022-10-13T02:48:11.502Z,10.96
2022-10-13T02:51:14.125Z,11.00
2022-10-13T02:54:16.887Z,10.95
2022-10-13T02:57:20.084Z,10.92
2022-10-13T03:00:23.317Z,10.92
2022-10-13T03:03:27.437Z,10.89
2022-10-13T03:06:30.041Z,10.88
2022-10-13T03:09:32.960Z,10.92
2022-10-13T03:12:35.595Z,10.96
2022-10-13T03:15:38.238Z,11.01
2022-10-13T03:18:42.267Z,11.09
2022-10-13T03:21:45.363Z,11.15
2022-10-13T03:24:47.999Z,11.22
2022-10-13T03:27:50.618Z,11.26
2022-10-13T03:31:01.615Z,11.29
2022-10-13T03:34:05.593Z,11.36
2022-10-13T03:37:08.213Z,11.31
2022-10-13T03:40:12.260Z,11.35
2022-10-13T03:43:14.866Z,11.38
2022-10-13T03:46:19.377Z,11.44
2022-10-13T03:49:23.367Z,11.49
2022-10-13T03:52:26.080Z,11.48
2022-10-13T03:55:28.785Z,11.50
2022-10-13T03:58:31.791Z,11.50
2022-10-13T04:01:34.791Z,11.52
2022-10-13T04:04:39.596Z,11.55
2022-10-13T04:07:42.517Z,11.58
2022-10-13T04:10:45.474Z,11.66
2022-10-13T04:13:48.264Z,11.68
2022-10-13T04:16:50.947Z,11.74
2022-10-13T04:19:55.285Z,11.79
2022-10-13T04:22:57.941Z,11.79
2022-10-13T04:26:00.970Z,11.82
2022-10-13T04:29:05.218Z,11.82
2022-10-13T04:32:07.846Z,11.79
2022-10-13T04:35:11.889Z,11.74
2022-10-13T04:38:14.504Z,11.70
2022-10-13T04:41:18.693Z,11.67
2022-10-13T04:44:21.597Z,11.66
2022-10-13T04:47:24.224Z,11.64
2022-10-13T04:50:28.416Z,11.60
2022-10-13T04:53:31.763Z,11.60
2022-10-13T04:56:34.670Z,11.60
2022-10-13T04:59:37.593Z,11.59
2022-10-13T05:02:40.259Z,11.62
2022-10-13T05:05:44.330Z,11.60
2022-10-13T05:08:47.002Z,11.61
2022-10-13T05:11:49.994Z,11.60
2022-10-13T05:14:52.673Z,11.62
2022-10-13T05:17:55.321Z,11.59
2022-10-13T05:21:07.766Z,11.58
2022-10-13T05:24:13.491Z,11.58
2022-10-13T05:27:16.102Z,11.57
2022-10-13T05:30:18.921Z,11.60
2022-10-13T05:33:21.588Z,11.68
2022-10-13T05:36:28.034Z,11.69
2022-10-13T05:39:30.668Z,11.72
2022-10-13T05:42:33.310Z,11.79
2022-10-13T05:45:36.237Z,11.78
2022-10-13T05:48:39.585Z,11.81
2022-10-13T05:51:47.864Z,11.80
2022-10-13T05:54:55.162Z,11.82
2022-10-13T05:57:57.846Z,11.88
2022-10-13T06:01:00.629Z,11.88
2022-10-13T06:04:06.857Z,11.92
2022-10-13T06:07:10.949Z,11.97
2022-10-13T06:10:13.754Z,12.01
2022-10-13T06:13:16.361Z,12.07
2022-10-13T06:16:19.079Z,12.11
2022-10-13T06:19:21.715Z,12.13
2022-10-13T06:22:26.043Z,12.17
2022-10-13T06:25:29.335Z,12.20
2022-10-13T06:28:31.970Z,12.23
2022-10-13T06:31:34.658Z,12.29
2022-10-13T06:34:37.298Z,12.34
2022-10-13T06:37:41.563Z,12.36
2022-10-13T06:40:44.267Z,12.38
2022-10-13T06:43:46.900Z,12.40
2022-10-13T06:46:49.813Z,12.37
2022-10-13T06:49:52.441Z,12.34
2022-10-13T06:52:57.499Z,12.37
2022-10-13T06:56:01.249Z,12.42
2022-10-13T06:59:03.930Z,12.42
2022-10-13T07:02:06.557Z,12.45
2022-10-13T07:05:09.807Z,12.51
2022-10-13T07:08:14.204Z,12.58
2022-10-13T07:11:18.598Z,12.60
2022-10-13T07:14:21.511Z,12.65
2022-10-13T07:17:24.093Z,12.72
2022-10-13T07:20:27.366Z,12.77
2022-10-13T07:23:31.761Z,12.84
2022-10-13T07:26:34.637Z,12.91
2022-10-13T07:29:37.338Z,12.95
2022-10-13T07:32:42.345Z,13.03
2022-10-13T07:35:45.097Z,13.13
2022-10-13T07:38:49.177Z,13.19
2022-10-13T07:41:51.773Z,13.29
2022-10-13T07:44:54.466Z,13.33
2022-10-13T07:47:57.179Z,13.43
2022-10-13T07:51:00.180Z,13.54
2022-10-13T07:54:04.351Z,13.63
2022-10-13T07:57:07.024Z,13.78
2022-10-13T08:00:11.127Z,13.91
2022-10-13T08:03:13.770Z,14.04
2022-10-13T08:06:16.818Z,14.09
2022-10-13T08:09:20.784Z,14.16
2022-10-13T08:12:23.371Z,14.21
2022-10-13T08:15:26.022Z,14.23
2022-10-13T08:18:28.911Z,14.29
2022-10-13T08:24:55.811Z,14.37
2022-10-13T08:28:00.623Z,14.41
2022-10-13T08:31:03.545Z,14.50
2022-10-13T08:34:06.329Z,14.65
2022-10-13T08:37:14.233Z,14.77
2022-10-13T08:40:21.727Z,14.86
2022-10-13T08:43:25.572Z,15.03
2022-10-13T08:46:34.440Z,15.13
2022-10-13T08:49:37.415Z,15.17
2022-10-13T08:52:52.915Z,15.21
2022-10-13T08:56:00.305Z,15.25
2022-10-13T08:59:05.169Z,15.33
2022-10-13T09:02:14.654Z,15.45
2022-10-13T09:05:26.514Z,15.59
2022-10-13T09:08:41.549Z,15.70
2022-10-13T09:11:48.176Z,15.81
2022-10-13T09:14:58.646Z,15.88
2022-10-13T09:18:10.852Z,15.95
2022-10-13T09:21:21.673Z,16.03
2022-10-13T09:24:26.395Z,16.08
2022-10-13T09:27:42.884Z,16.11
2022-10-13T09:30:47.642Z,16.11
2022-10-13T09:33:59.305Z,16.13
2022-10-13T09:37:03.863Z,16.15
2022-10-13T09:40:31.869Z,16.12
2022-10-13T09:43:44.876Z,16.10
2022-10-13T09:46:54.171Z,16.10
2022-10-13T09:50:18.719Z,16.13
2022-10-13T09:53:29.583Z,16.09
2022-10-13T09:56:43.263Z,16.05
2022-10-13T09:59:55.811Z,16.08
2022-10-13T10:03:09.114Z,16.11
2022-10-13T10:06:24.003Z,16.14
2022-10-13T10:09:40.745Z,16.16
2022-10-13T10:12:50.716Z,16.14
2022-10-13T10:16:06.380Z,16.17
2022-10-13T10:19:25.715Z,16.08
2022-10-13T10:22:40.658Z,16.06
2022-10-13T10:25:54.010Z,16.01
2022-10-13T10:29:25.897Z,15.97
2022-10-13T10:32:44.469Z,15.93
2022-10-13T10:35:56.439Z,15.96
2022-10-13T10:39:11.613Z,15.96
2022-10-13T10:42:37.228Z,15.95
2022-10-13T10:45:46.795Z,16.00
2022-10-13T10:48:58.762Z,16.01
2022-10-13T10:52:11.497Z,15.99
2022-10-13T10:55:25.184Z,16.05
2022-10-13T10:58:42.261Z,16.06
2022-10-13T11:02:03.077Z,16.07
2022-10-13T11:05:15.232Z,16.13
2022-10-13T11:08:35.744Z,16.11
2022-10-13T11:11:50.131Z,16.15
2022-10-13T11:15:14.213Z,16.20
2022-10-13T11:19:14.342Z,16.34
2022-10-13T11:22:22.934Z,16.45
2022-10-13T11:25:39.300Z,16.52
2022-10-13T11:28:49.267Z,16.54
2022-10-13T11:31:54.698Z,16.54
2022-10-13T11:34:59.753Z,16.58
2022-10-13T11:38:29.142Z,16.50
2022-10-13T11:41:41.883Z,16.48
2022-10-13T11:44:54.813Z,16.52
2022-10-13T11:48:17.075Z,16.58
2022-10-13T11:51:31.113Z,16.58
2022-10-13T11:54:40.413Z,16.60
2022-10-13T11:57:43.041Z,16.67
2022-10-13T12:00:57.914Z,16.72
2022-10-13T12:04:00.542Z,16.80
2022-10-13T12:07:05.939Z,16.86
2022-10-13T12:10:21.564Z,16.92
2022-10-13T12:13:26.549Z,16.92
2022-10-13T12:16:29.917Z,16.96
2022-10-13T12:19:33.362Z,17.04
2022-10-13T12:22:40.122Z,17.08
2022-10-13T12:25:48.909Z,17.23
2022-10-13T12:28:56.208Z,17.40
2022-10-13T12:31:59.518Z,17.61
2022-10-13T12:35:16.812Z,17.80
2022-10-13T12:38:21.489Z,17.96
2022-10-13T12:41:28.519Z,18.06
2022-10-13T12:44:33.024Z,18.11
2022-10-13T12:47:48.104Z,18.13
2022-10-13T12:50:51.167Z,18.12
2022-10-13T12:53:53.901Z,18.07
2022-10-13T12:57:01.034Z,18.03
2022-10-13T13:00:06.348Z,17.99
2022-10-13T13:03:26.039Z,17.98
2022-10-13T13:06:35.373Z,17.94
2022-10-13T13:09:39.083Z,17.88
2022-10-13T13:12:44.871Z,17.79
2022-10-13T13:15:47.508Z,17.74
2022-10-13T13:18:51.227Z,17.67
2022-10-13T13:21:53.891Z,17.60
2022-10-13T13:24:56.558Z,17.49
2022-10-13T13:28:00.538Z,17.45
2022-10-13T13:31:03.176Z,17.40
2022-10-13T13:34:05.822Z,17.36
2022-10-13T13:37:14.097Z,17.31
2022-10-13T13:40:18.733Z,17.28
2022-10-13T13:43:22.757Z,17.25
2022-10-13T13:46:27.537Z,17.19
2022-10-13T13:49:30.150Z,17.14
2022-10-13T13:52:32.799Z,17.11
2022-10-13T13:55:36.313Z,17.06
2022-10-13T13:58:40.361Z,17.02
2022-10-13T14:01:43.068Z,16.96
2022-10-13T14:04:46.425Z,16.91
2022-10-13T14:07:49.242Z,16.84
2022-10-13T14:10:51.853Z,16.77
2022-10-13T14:13:58.010Z,16.75
2022-10-13T14:17:01.305Z,16.68
2022-10-13T14:20:04.092Z,16.66
2022-10-13T14:23:06.707Z,16.61
2022-10-13T14:26:09.918Z,16.63
2022-10-13T14:29:14.201Z,16.63
2022-10-13T14:32:17.095Z,16.58
2022-10-13T14:35:19.708Z,16.49
2022-10-13T14:38:22.410Z,16.41
2022-10-13T14:41:26.104Z,16.29
2022-10-13T14:44:30.066Z,16.23
2022-10-13T14:47:32.712Z,16.18
2022-10-13T14:50:35.339Z,16.12
2022-10-13T14:53:39.414Z,16.02
2022-10-13T14:56:42.053Z,16.00
2022-10-13T14:59:47.428Z,15.98
2022-10-13T15:02:50.029Z,15.93
2022-10-13T15:05:52.683Z,15.91
2022-10-13T15:08:56.037Z,15.92
2022-10-13T15:11:58.749Z,15.93
2022-10-13T15:15:02.810Z,15.96
2022-10-13T15:18:05.574Z,15.95
2022-10-13T15:21:08.300Z,15.92
2022-10-13T15:24:12.081Z,15.87
2022-10-13T15:27:14.767Z,15.83
2022-10-13T15:30:18.989Z,15.84
2022-10-13T15:33:21.763Z,15.81
2022-10-13T15:36:25.594Z,15.77
2022-10-13T15:39:30.321Z,15.73
2022-10-13T15:42:35.576Z,15.68
2022-10-13T15:45:41.976Z,15.66
2022-10-13T15:48:46.959Z,15.60
2022-10-13T15:51:52.109Z,15.56
2022-10-13T15:54:57.325Z,15.52
2022-10-13T15:58:02.059Z,15.49
2022-10-13T16:01:11.198Z,15.44
2022-10-13T16:04:16.358Z,15.42
2022-10-13T16:07:22.975Z,15.39
2022-10-13T16:10:28.083Z,15.34
2022-10-13T16:13:33.010Z,15.28
2022-10-13T16:16:40.112Z,15.27
2022-10-13T16:19:46.128Z,15.24
2022-10-13T16:22:51.141Z,15.27
2022-10-13T16:25:56.109Z,15.18
2022-10-13T16:29:00.836Z,15.13
2022-10-13T16:32:07.303Z,15.09
2022-10-13T16:35:12.421Z,15.07
2022-10-13T16:38:17.193Z,15.09
2022-10-13T16:41:21.834Z,15.11
2022-10-13T16:44:27.265Z,15.08
2022-10-13T16:47:33.862Z,15.05
2022-10-13T16:50:40.589Z,15.02
2022-10-13T16:53:48.808Z,14.99
2022-10-13T16:56:53.574Z,14.96
2022-10-13T16:59:58.503Z,14.94
2022-10-13T17:03:04.907Z,14.87
2022-10-13T17:06:09.767Z,14.84
2022-10-13T17:09:15.076Z,14.82
2022-10-13T17:12:20.512Z,14.80
2022-10-13T17:15:25.057Z,14.80
2022-10-13T17:18:31.682Z,14.77
2022-10-13T17:21:37.182Z,14.74
2022-10-13T17:24:48.230Z,14.72
2022-10-13T17:27:52.970Z,14.69
2022-10-13T17:31:01.438Z,14.65
2022-10-13T17:34:09.693Z,14.65
2022-10-13T17:37:14.645Z,14.64
2022-10-13T17:40:19.382Z,14.65
2022-10-13T17:43:26.401Z,14.60
2022-10-13T17:46:40.132Z,14.55
2022-10-13T17:49:47.400Z,14.54
2022-10-13T17:52:52.252Z,14.53
2022-10-13T17:56:02.726Z,14.49
2022-10-13T17:59:07.422Z,14.48
2022-10-13T18:02:12.422Z,14.46
2022-10-13T18:05:18.888Z,14.51
2022-10-13T18:08:23.866Z,14.46
2022-10-13T18:11:29.433Z,14.43
2022-10-13T18:14:34.251Z,14.41
2022-10-13T18:17:39.231Z,14.40
2022-10-13T18:20:45.565Z,14.39
2022-10-13T18:23:51.098Z,14.37
2022-10-13T18:26:56.132Z,14.36
2022-10-13T18:30:01.216Z,14.31
2022-10-13T18:33:06.350Z,14.37
2022-10-13T18:36:17.562Z,14.40
2022-10-13T18:39:25.383Z,14.41
2022-10-13T18:42:30.334Z,14.44
2022-10-13T18:45:38.094Z,14.43
2022-10-13T18:48:43.069Z,14.43
2022-10-13T18:51:52.009Z,14.43
2022-10-13T18:54:57.084Z,14.42
2022-10-13T18:58:01.948Z,14.40
2022-10-13T19:01:09.423Z,14.40
2022-10-13T19:04:17.583Z,14.41
2022-10-13T19:07:24.214Z,14.39
2022-10-13T19:10:30.692Z,14.39
2022-10-13T19:13:35.632Z,14.39
2022-10-13T19:16:42.049Z,14.39
2022-10-13T19:19:47.191Z,14.36
2022-10-13T19:22:54.395Z,14.36
2022-10-13T19:26:00.839Z,14.34
2022-10-13T19:29:08.164Z,14.32
2022-10-13T19:32:13.274Z,14.31
2022-10-13T19:35:18.240Z,14.29
2022-10-13T19:38:25.467Z,14.27
2022-10-13T19:41:32.083Z,14.28
2022-10-13T19:44:37.152Z,14.29
2022-10-13T19:47:42.698Z,14.27
2022-10-13T19:50:48.637Z,14.23
2022-10-13T19:53:57.692Z,14.25
2022-10-13T19:57:02.562Z,14.24
2022-10-13T20:00:07.724Z,14.23
2022-10-13T20:03:13.391Z,14.24
2022-10-13T20:06:19.210Z,14.24
2022-10-13T20:09:26.028Z,14.25
2022-10-13T20:12:32.449Z,14.26
2022-10-13T20:15:41.847Z,14.22
2022-10-13T20:18:48.974Z,14.18
2022-10-13T20:21:55.219Z,14.16
2022-10-13T20:25:01.662Z,14.12
2022-10-13T20:28:07.110Z,14.09
2022-10-13T20:31:13.181Z,14.05
2022-10-13T20:34:18.341Z,14.01
2022-10-13T20:37:46.646Z,13.93
2022-10-13T20:40:55.175Z,13.86
2022-10-13T20:44:04.442Z,13.80
2022-10-13T20:47:09.475Z,13.75
2022-10-13T20:50:14.540Z,13.71
2022-10-13T20:53:19.190Z,13.72
2022-10-13T20:56:47.891Z,13.68
2022-10-13T20:59:52.949Z,13.65
2022-10-13T21:03:01.894Z,13.61
2022-10-13T21:06:13.574Z,13.58
2022-10-13T21:09:19.663Z,13.55
2022-10-13T21:12:26.382Z,13.51
2022-10-13T21:15:31.050Z,13.49
2022-10-13T21:18:36.431Z,13.49
2022-10-13T21:21:41.400Z,13.44
2022-10-13T21:24:46.797Z,13.42
2022-10-13T21:27:53.616Z,13.39
2022-10-13T21:31:06.035Z,13.37
2022-10-13T21:34:12.403Z,13.37
2022-10-13T21:37:18.749Z,13.40
2022-10-13T21:40:23.867Z,13.45
2022-10-13T21:43:30.117Z,13.48
2022-10-13T21:46:36.284Z,13.51
2022-10-13T21:49:41.216Z,13.54
2022-10-13T21:52:46.148Z,13.50
2022-10-13T21:55:52.828Z,13.48
2022-10-13T21:58:59.366Z,13.45
2022-10-13T22:02:04.226Z,13.45
2022-10-13T22:05:10.286Z,13.43
2022-10-13T22:08:15.096Z,13.45
2022-10-13T22:11:20.897Z,13.45
2022-10-13T22:14:27.798Z,13.46
2022-10-13T22:17:34.417Z,13.47
2022-10-13T22:20:39.414Z,13.48
2022-10-13T22:23:44.786Z,13.49
2022-10-13T22:26:50.987Z,13.50
2022-10-13T22:29:59.374Z,13.50
2022-10-13T22:33:04.416Z,13.53
2022-10-13T22:36:10.008Z,13.53
2022-10-13T22:39:15.893Z,13.55
2022-10-13T22:42:21.854Z,13.57
2022-10-13T22:45:28.291Z,13.61
2022-10-13T22:48:38.219Z,13.61
2022-10-13T22:51:47.133Z,13.60
2022-10-13T22:54:52.310Z,13.61
2022-10-13T22:57:57.385Z,13.63
2022-10-13T23:01:09.009Z,13.61
2022-10-13T23:04:14.304Z,13.63
2022-10-13T23:07:19.931Z,13.61
2022-10-13T23:10:25.581Z,13.62
2022-10-13T23:13:30.345Z,13.59
2022-10-13T23:16:39.406Z,13.58
2022-10-13T23:19:44.092Z,13.58
2022-10-13T23:22:48.980Z,13.56
2022-10-13T23:25:53.691Z,13.55
2022-10-13T23:28:59.859Z,13.53
2022-10-13T23:32:09.532Z,13.53
2022-10-13T23:35:15.116Z,13.51
2022-10-13T23:38:20.486Z,13.50
2022-10-13T23:41:25.723Z,13.50
2022-10-13T23:44:31.223Z,13.46
2022-10-13T23:47:37.521Z,13.45
2022-10-13T23:50:42.347Z,13.43
2022-10-13T23:53:48.694Z,13.43
2022-10-13T23:56:55.285Z,13.41
